Time,TemperatureF,DewpointF,PressureIn,WindDirection,WindDirectionDegrees,WindSpeedMPH,WindSpeedGustMPH,Humidity,HourlyPrecipIn,Conditions,Clouds,dailyrainin,SoftwareType,DateUTC
2013-01-16 00:02:00,29.0,11.0,-100.00,North,-999,-999.0,-999.0,46,-99.99,,,0.00,,2013-01-16 08:02:00,
2013-01-16 00:12:00,29.0,11.0,-100.00,North,-999,-999.0,-999.0,46,-99.99,,,0.00,,2013-01-16 08:12:00,
2013-01-16 00:23:00,-999.0,-99.9,-100.00,South,180,3.0,-999.0,-999,-99.99,,,-99.99,,2013-01-16 08:23:00,
2013-01-16 00:43:00,-999.0,-99.9,-100.00,SW,219,7.0,-999.0,-999,-99.99,,,-99.99,,2013-01-16 08:43:00,
2013-01-16 00:53:00,-999.0,-99.9,-100.00,SW,219,7.0,-999.0,-999,-99.99,,,-99.99,,2013-01-16 08:53:00,
2013-01-16 01:03:00,-999.0,-99.9,-100.00,SW,219,7.0,-999.0,-999,-99.99,,,-99.99,,2013-01-16 09:03:00,
2013-01-16 01:22:00,-999.0,-99.9,-100.00,SSW,196,4.0,-999.0,-999,-99.99,,,-99.99,,2013-01-16 09:22:00,
2013-01-16 02:03:00,-999.0,-99.9,-100.00,SW,225,4.0,-999.0,-999,-99.99,,,-99.99,,2013-01-16 10:03:00,
2013-01-16 02:12:00,-999.0,-99.9,-100.00,SSW,213,7.0,-999.0,-999,-99.99,,,-99.99,,2013-01-16 10:12:00,
2013-01-16 02:22:00,-999.0,-99.9,-100.00,SSW,213,7.0,-999.0,-999,-99.99,,,-99.99,,2013-01-16 10:22:00,
2013-01-16 02:33:00,-999.0,-99.9,-100.00,SSW,213,7.0,-999.0,-999,-99.99,,,-99.99,,2013-01-16 10:33:00,
2013-01-16 02:43:00,-999.0,-99.9,-100.00,SSW,213,7.0,-999.0,-999,-99.99,,,-99.99,,2013-01-16 10:43:00,
2013-01-16 02:53:00,-999.0,-99.9,-100.00,SW,230,5.0,-999.0,-999,-99.99,,,-99.99,,2013-01-16 10:53:00,
2013-01-16 03:12:00,-999.0,-99.9,-100.00,SW,219,6.0,-999.0,-999,-99.99,,,-99.99,,2013-01-16 11:12:00,
2013-01-16 03:23:00,-999.0,-99.9,-100.00,SW,219,6.0,-999.0,-999,-99.99,,,-99.99,,2013-01-16 11:23:00,
2013-01-16 03:33:00,-999.0,-99.9,-100.00,SSW,202,6.0,-999.0,-999,-99.99,,,-99.99,,2013-01-16 11:33:00,
2013-01-16 04:02:00,-999.0,-99.9,-100.00,South,174,3.0,-999.0,-999,-99.99,,,-99.99,,2013-01-16 12:02:00,
2013-01-16 04:33:00,-999.0,-99.9,-100.00,South,174,3.0,-999.0,-999,-99.99,,,-99.99,,2013-01-16 12:33:00,
2013-01-16 04:43:00,-999.0,-99.9,-100.00,South,174,3.0,-999.0,-999,-99.99,,,-99.99,,2013-01-16 12:43:00,
2013-01-16 04:53:00,-999.0,-99.9,-100.00,South,174,3.0,-999.0,-999,-99.99,,,-99.99,,2013-01-16 12:53:00,
2013-01-16 05:53:00,-999.0,-99.9,-100.00,North,0,0.0,-999.0,-999,-99.99,,,-99.99,,2013-01-16 13:53:00,
2013-01-16 06:21:00,-999.0,-99.9,-100.00,SW,219,3.0,-999.0,-999,-99.99,,,-99.99,,2013-01-16 14:21:00,
2013-01-16 06:43:00,-999.0,-99.9,-100.00,SW,219,3.0,-999.0,-999,-99.99,,,-99.99,,2013-01-16 14:43:00,
2013-01-16 06:53:00,-999.0,-99.9,-100.00,SW,219,3.0,-999.0,-999,-99.99,,,-99.99,,2013-01-16 14:53:00,
2013-01-16 07:03:00,-999.0,-99.9,-100.00,SW,219,3.0,-999.0,-999,-99.99,,,-99.99,,2013-01-16 15:03:00,
2013-01-16 07:12:00,-999.0,-99.9,-100.00,SW,219,3.0,-999.0,-999,-99.99,,,-99.99,,2013-01-16 15:12:00,
2013-01-16 08:04:00,-999.0,-99.9,-100.00,SSW,202,2.0,-999.0,-999,-99.99,,,-99.99,,2013-01-16 16:04:00,
2013-01-16 08:12:00,34.0,17.0,-100.00,North,-999,-999.0,-999.0,49,-99.99,,,-99.99,,2013-01-16 16:12:00,
2013-01-16 08:22:00,34.0,17.0,-100.00,North,-999,-999.0,-999.0,49,-99.99,,,-99.99,,2013-01-16 16:22:00,
2013-01-16 08:42:00,39.0,17.0,-100.00,North,-999,-999.0,-999.0,40,-99.99,,,-99.99,,2013-01-16 16:42:00,
2013-01-16 08:53:00,39.0,17.0,-100.00,North,-999,-999.0,-999.0,40,-99.99,,,-99.99,,2013-01-16 16:53:00,
2013-01-16 09:02:00,39.0,17.0,-100.00,North,-999,-999.0,-999.0,40,-99.99,,,-99.99,,2013-01-16 17:02:00,
2013-01-16 09:12:00,-999.0,-99.9,-100.00,ENE,78,2.0,-999.0,-999,-99.99,,,-99.99,,2013-01-16 17:12:00,
2013-01-16 09:23:00,-999.0,-99.9,-100.00,ENE,78,2.0,-999.0,-999,-99.99,,,-99.99,,2013-01-16 17:23:00,
2013-01-16 09:31:00,-999.0,-99.9,-100.00,NNE,33,8.0,-999.0,-999,-99.99,,,-99.99,,2013-01-16 17:31:00,
2013-01-16 09:33:00,-999.0,-99.9,-100.00,North,0,5.0,-999.0,-999,-99.99,,,-99.99,,2013-01-16 17:33:00,
2013-01-16 09:44:00,-999.0,-99.9,-100.00,North,0,5.0,-999.0,-999,-99.99,,,-99.99,,2013-01-16 17:44:00,
2013-01-16 09:53:00,-999.0,-99.9,-100.00,North,0,5.0,-999.0,-999,-99.99,,,-99.99,,2013-01-16 17:53:00,
2013-01-16 10:03:00,-999.0,-99.9,-100.00,NNE,33,8.0,-999.0,-999,-99.99,,,-99.99,,2013-01-16 18:03:00,
2013-01-16 10:13:00,-999.0,-99.9,-100.00,NNE,33,8.0,-999.0,-999,-99.99,,,-99.99,,2013-01-16 18:13:00,
2013-01-16 10:23:00,-999.0,-99.9,-100.00,NNE,33,8.0,-999.0,-999,-99.99,,,-99.99,,2013-01-16 18:23:00,
2013-01-16 11:03:00,-999.0,-99.9,-100.00,NNE,28,4.0,-999.0,-999,-99.99,,,-99.99,,2013-01-16 19:03:00,
2013-01-16 11:13:00,-999.0,-99.9,-100.00,NNE,28,4.0,-999.0,-999,-99.99,,,-99.99,,2013-01-16 19:13:00,
2013-01-16 11:23:00,-999.0,-99.9,-100.00,NNE,28,4.0,-999.0,-999,-99.99,,,-99.99,,2013-01-16 19:23:00,
2013-01-16 11:33:00,-999.0,-99.9,-100.00,NNE,22,8.0,-999.0,-999,-99.99,,,-99.99,,2013-01-16 19:33:00,
2013-01-16 11:43:00,-999.0,-99.9,-100.00,NNE,16,7.0,-999.0,-999,-99.99,,,-99.99,,2013-01-16 19:43:00,
2013-01-16 11:53:00,-999.0,-99.9,-100.00,NNE,16,7.0,-999.0,-999,-99.99,,,-99.99,,2013-01-16 19:53:00,
2013-01-16 12:03:00,-999.0,-99.9,-100.00,NNE,16,7.0,-999.0,-999,-99.99,,,-99.99,,2013-01-16 20:03:00,
2013-01-16 12:12:00,-999.0,-99.9,-100.00,NE,45,7.0,-999.0,-999,-99.99,,,-99.99,,2013-01-16 20:12:00,
2013-01-16 12:23:00,-999.0,-99.9,-100.00,NE,45,7.0,-999.0,-999,-99.99,,,-99.99,,2013-01-16 20:23:00,
2013-01-16 12:43:00,-999.0,-99.9,-100.00,NNE,33,4.0,-999.0,-999,-99.99,,,-99.99,,2013-01-16 20:43:00,
2013-01-16 12:53:00,-999.0,-99.9,-100.00,NNE,33,4.0,-999.0,-999,-99.99,,,-99.99,,2013-01-16 20:53:00,
2013-01-16 13:13:00,-999.0,-99.9,-100.00,ENE,78,5.0,-999.0,-999,-99.99,,,-99.99,,2013-01-16 21:13:00,
2013-01-16 13:23:00,-999.0,-99.9,-100.00,ENE,78,5.0,-999.0,-999,-99.99,,,-99.99,,2013-01-16 21:23:00,
2013-01-16 13:53:00,-999.0,-99.9,-100.00,North,354,4.0,-999.0,-999,-99.99,,,-99.99,,2013-01-16 21:53:00,
2013-01-16 14:03:00,-999.0,-99.9,-100.00,North,354,4.0,-999.0,-999,-99.99,,,-99.99,,2013-01-16 22:03:00,
2013-01-16 14:12:00,-999.0,-99.9,-100.00,NNE,33,6.0,-999.0,-999,-99.99,,,-99.99,,2013-01-16 22:12:00,
2013-01-16 14:23:00,-999.0,-99.9,-100.00,NNE,33,6.0,-999.0,-999,-99.99,,,-99.99,,2013-01-16 22:23:00,
2013-01-16 14:33:00,-999.0,-99.9,-100.00,NE,56,7.0,-999.0,-999,-99.99,,,-99.99,,2013-01-16 22:33:00,
2013-01-16 14:43:00,-999.0,-99.9,-100.00,NE,56,7.0,-999.0,-999,-99.99,,,-99.99,,2013-01-16 22:43:00,
2013-01-16 14:53:00,-999.0,-99.9,-100.00,NE,45,8.0,-999.0,-999,-99.99,,,-99.99,,2013-01-16 22:53:00,
2013-01-16 15:03:00,-999.0,-99.9,-100.00,NE,45,8.0,-999.0,-999,-99.99,,,-99.99,,2013-01-16 23:03:00,
2013-01-16 15:13:00,-999.0,-99.9,-100.00,NE,39,8.0,-999.0,-999,-99.99,,,-99.99,,2013-01-16 23:13:00,
2013-01-16 15:23:00,-999.0,-99.9,-100.00,NE,39,8.0,-999.0,-999,-99.99,,,-99.99,,2013-01-16 23:23:00,
2013-01-16 15:33:00,-999.0,-99.9,-100.00,NNE,28,7.0,-999.0,-999,-99.99,,,-99.99,,2013-01-16 23:33:00,
2013-01-16 15:43:00,-999.0,-99.9,-100.00,NNE,28,7.0,-999.0,-999,-99.99,,,-99.99,,2013-01-16 23:43:00,
2013-01-16 15:53:00,-999.0,-99.9,-100.00,NNE,28,7.0,-999.0,-999,-99.99,,,-99.99,,2013-01-16 23:53:00,
2013-01-16 16:03:00,-999.0,-99.9,-100.00,North,0,5.0,-999.0,-999,-99.99,,,-99.99,,2013-01-17 00:03:00,
2013-01-16 16:12:00,-999.0,-99.9,-100.00,North,0,5.0,-999.0,-999,-99.99,,,-99.99,,2013-01-17 00:12:00,
2013-01-16 16:23:00,-999.0,-99.9,-100.00,North,0,5.0,-999.0,-999,-99.99,,,-99.99,,2013-01-17 00:23:00,
2013-01-16 16:33:00,-999.0,-99.9,-100.00,NE,56,5.0,-999.0,-999,-99.99,,,-99.99,,2013-01-17 00:33:00,
2013-01-16 16:43:00,-999.0,-99.9,-100.00,NE,56,5.0,-999.0,-999,-99.99,,,-99.99,,2013-01-17 00:43:00,
2013-01-16 16:53:00,-999.0,-99.9,-100.00,NE,56,5.0,-999.0,-999,-99.99,,,-99.99,,2013-01-17 00:53:00,
2013-01-16 17:12:00,49.0,-99.9,-100.00,North,-999,-999.0,-999.0,-999,-99.99,,,-99.99,,2013-01-17 01:12:00,
2013-01-16 17:22:00,49.0,-99.9,-100.00,North,-999,-999.0,-999.0,-999,-99.99,,,-99.99,,2013-01-17 01:22:00,
2013-01-16 17:33:00,-999.0,-99.9,-100.00,SW,219,2.0,-999.0,-999,-99.99,,,-99.99,,2013-01-17 01:33:00,
2013-01-16 17:43:00,-999.0,-99.9,-100.00,SW,219,2.0,-999.0,-999,-99.99,,,-99.99,,2013-01-17 01:43:00,
2013-01-16 17:53:00,-999.0,-99.9,-100.00,SW,219,2.0,-999.0,-999,-99.99,,,-99.99,,2013-01-17 01:53:00,
2013-01-16 18:02:00,-999.0,-99.9,-100.00,SW,219,2.0,-999.0,-999,-99.99,,,-99.99,,2013-01-17 02:02:00,
2013-01-16 18:12:00,43.0,19.0,-100.00,North,-999,-999.0,-999.0,37,-99.99,,,-99.99,,2013-01-17 02:12:00,
2013-01-16 18:22:00,43.0,19.0,-100.00,North,-999,-999.0,-999.0,37,-99.99,,,-99.99,,2013-01-17 02:22:00,
2013-01-16 19:04:00,39.0,-99.9,-100.00,North,-999,-999.0,-999.0,-999,-99.99,,,-99.99,,2013-01-17 03:04:00,
2013-01-16 19:12:00,-999.0,-99.9,-100.00,SW,219,3.0,-999.0,-999,-99.99,,,-99.99,,2013-01-17 03:12:00,
2013-01-16 19:22:00,-999.0,-99.9,-100.00,SW,219,3.0,-999.0,-999,-99.99,,,-99.99,,2013-01-17 03:22:00,
2013-01-16 19:43:00,-999.0,-99.9,-100.00,SSW,213,5.0,-999.0,-999,-99.99,,,-99.99,,2013-01-17 03:43:00,
2013-01-16 19:53:00,-999.0,-99.9,-100.00,SSW,213,5.0,-999.0,-999,-99.99,,,-99.99,,2013-01-17 03:53:00,
2013-01-16 20:03:00,-999.0,-99.9,-100.00,SSW,213,8.0,-999.0,-999,-99.99,,,-99.99,,2013-01-17 04:03:00,
2013-01-16 20:12:00,-999.0,-99.9,-100.00,SSW,213,8.0,-999.0,-999,-99.99,,,-99.99,,2013-01-17 04:12:00,
2013-01-16 20:23:00,-999.0,-99.9,-100.00,SSW,213,8.0,-999.0,-999,-99.99,,,-99.99,,2013-01-17 04:23:00,
2013-01-16 20:33:00,-999.0,-99.9,-100.00,SSW,213,6.0,-999.0,-999,-99.99,,,-99.99,,2013-01-17 04:33:00,
2013-01-16 20:43:00,-999.0,-99.9,-100.00,SSW,213,6.0,-999.0,-999,-99.99,,,-99.99,,2013-01-17 04:43:00,
2013-01-16 20:53:00,-999.0,-99.9,-100.00,SW,225,6.0,-999.0,-999,-99.99,,,-99.99,,2013-01-17 04:53:00,
2013-01-16 21:33:00,-999.0,-99.9,-100.00,SW,219,4.0,-999.0,-999,-99.99,,,-99.99,,2013-01-17 05:33:00,
2013-01-16 21:43:00,-999.0,-99.9,-100.00,SW,219,4.0,-999.0,-999,-99.99,,,-99.99,,2013-01-17 05:43:00,
2013-01-16 21:53:00,-999.0,-99.9,-100.00,SW,219,4.0,-999.0,-999,-99.99,,,-99.99,,2013-01-17 05:53:00,
2013-01-16 22:12:00,-999.0,-99.9,-100.00,SSW,196,3.0,-999.0,-999,-99.99,,,-99.99,,2013-01-17 06:12:00,
2013-01-16 22:22:00,-999.0,-99.9,-100.00,SSW,196,3.0,-999.0,-999,-99.99,,,-99.99,,2013-01-17 06:22:00,
2013-01-16 23:02:00,-999.0,-99.9,-100.00,West,270,4.0,-999.0,-999,-99.99,,,-99.99,,2013-01-17 07:02:00,
2013-01-16 23:11:00,36.0,18.0,-100.00,North,-999,-999.0,-999.0,47,-99.99,,,-99.99,,2013-01-17 07:11:00,
2013-01-16 23:22:00,36.0,18.0,-100.00,North,-999,-999.0,-999.0,47,-99.99,,,-99.99,,2013-01-17 07:22:00,
2013-01-16 23:42:00,39.0,17.0,-100.00,North,-999,-999.0,-999.0,41,-99.99,,,0.00,,2013-01-17 07:42:00,
2013-01-16 23:52:00,39.0,17.0,-100.00,North,-999,-999.0,-999.0,41,-99.99,,,0.00,,2013-01-17 07:52:00,